createdAt,value
2023-09-18T00:01:29.966Z,101438.00
2023-09-18T00:06:38.027Z,101441.00
2023-09-18T00:11:49.479Z,101447.00
2023-09-18T00:17:02.383Z,101439.00
2023-09-18T00:22:17.891Z,101437.00
2023-09-18T00:27:21.569Z,101429.00
2023-09-18T00:32:42.469Z,101421.00
2023-09-18T00:37:48.352Z,101420.00
2023-09-18T00:43:11.307Z,101414.00
2023-09-18T00:48:25.208Z,101415.00
2023-09-18T00:53:29.880Z,101411.00
2023-09-18T00:58:36.383Z,101418.00
2023-09-18T01:03:50.302Z,101411.00
2023-09-18T01:09:03.595Z,101422.00
2023-09-18T01:14:25.622Z,101422.00
2023-09-18T01:19:51.060Z,101406.00
2023-09-18T01:25:00.145Z,101396.00
2023-09-18T01:30:11.529Z,101402.00
2023-09-18T01:35:21.466Z,101386.00
2023-09-18T01:40:33.977Z,101388.00
2023-09-18T01:45:46.772Z,101399.00
2023-09-18T01:50:55.170Z,101394.00
2023-09-18T01:56:11.457Z,101394.00
2023-09-18T02:01:32.733Z,101384.00
2023-09-18T02:06:39.368Z,101383.00
2023-09-18T02:11:49.169Z,101385.00
2023-09-18T02:17:01.628Z,101381.00
2023-09-18T02:22:15.514Z,101379.00
2023-09-18T02:27:58.474Z,101383.00
2023-09-18T02:33:21.079Z,101377.00
2023-09-18T02:38:29.978Z,101384.00
2023-09-18T02:43:52.607Z,101384.00
2023-09-18T02:48:59.653Z,101382.00
2023-09-18T02:54:10.181Z,101374.00
2023-09-18T02:59:34.248Z,101351.00
2023-09-18T03:04:39.529Z,101365.00
2023-09-18T03:09:58.883Z,101368.00
2023-09-18T03:15:18.315Z,101370.00
2023-09-18T03:20:25.417Z,101368.00
2023-09-18T03:25:48.965Z,101361.00
2023-09-18T03:31:16.744Z,101343.00
2023-09-18T03:36:26.696Z,101349.00
2023-09-18T03:47:00.488Z,101347.00
2023-09-18T03:52:11.915Z,101337.00
2023-09-18T03:57:20.847Z,101327.00
2023-09-18T04:02:32.227Z,101309.00
2023-09-18T04:07:39.815Z,101307.00
2023-09-18T04:12:45.911Z,101302.00
2023-09-18T04:18:06.662Z,101291.00
2023-09-18T04:23:27.224Z,101277.00
2023-09-18T04:28:36.821Z,101276.00
2023-09-18T04:33:54.137Z,101262.00
2023-09-18T04:39:05.524Z,101268.00
2023-09-18T04:44:13.380Z,101266.00
2023-09-18T04:49:19.992Z,101271.00
2023-09-18T04:54:32.268Z,101275.00
2023-09-18T04:59:39.513Z,101266.00
2023-09-18T05:04:55.380Z,101261.00
2023-09-18T05:10:05.011Z,101255.00
2023-09-18T05:15:12.858Z,101258.00
2023-09-18T05:32:05.558Z,101258.00
2023-09-18T05:37:08.241Z,101268.00
2023-09-18T05:42:12.719Z,101263.00
2023-09-18T05:47:20.631Z,101259.00
2023-09-18T05:52:26.933Z,101245.00
2023-09-18T05:57:29.960Z,101262.00
2023-09-18T06:02:34.349Z,101247.00
2023-09-18T06:07:41.486Z,101245.00
2023-09-18T06:12:44.354Z,101242.00
2023-09-18T06:17:51.349Z,101233.00
2023-09-18T06:22:54.686Z,101235.00
2023-09-18T06:27:57.722Z,101240.00
2023-09-18T06:33:02.543Z,101234.00
2023-09-18T06:38:08.051Z,101241.00
2023-09-18T06:43:12.115Z,101229.00
2023-09-18T06:48:20.735Z,101238.00
2023-09-18T06:53:34.161Z,101223.00
2023-09-18T06:58:41.404Z,101213.00
2023-09-18T07:03:50.328Z,101212.00
2023-09-18T07:08:53.603Z,101208.00
2023-09-18T07:13:56.373Z,101208.00
2023-09-18T07:19:00.244Z,101212.00
2023-09-18T07:24:03.201Z,101203.00
2023-09-18T07:29:11.672Z,101200.00
2023-09-18T07:34:16.218Z,101189.00
2023-09-18T07:39:19.228Z,101195.00
2023-09-18T07:44:26.159Z,101191.00
2023-09-18T07:49:31.937Z,101189.00
2023-09-18T07:54:34.446Z,101185.00
2023-09-18T07:59:37.232Z,101177.00
2023-09-18T08:04:44.840Z,101185.00
2023-09-18T08:09:47.441Z,101185.00
2023-09-18T08:14:50.380Z,101176.00
2023-09-18T08:20:00.905Z,101164.00
2023-09-18T08:25:05.612Z,101165.00
2023-09-18T08:30:10.070Z,101172.00
2023-09-18T08:35:15.005Z,101159.00
2023-09-18T08:40:18.151Z,101157.00
2023-09-18T08:45:28.796Z,101149.00
2023-09-18T08:50:34.400Z,101138.00
2023-09-18T08:55:47.083Z,101138.00
2023-09-18T09:00:50.937Z,101118.00
2023-09-18T09:05:55.828Z,101113.00
2023-09-18T09:10:58.830Z,101116.00
2023-09-18T09:16:01.867Z,101096.00
2023-09-18T09:21:06.860Z,101090.00
2023-09-18T09:26:21.252Z,101074.00
2023-09-18T09:31:26.712Z,101077.00
2023-09-18T09:36:32.610Z,101069.00
2023-09-18T09:41:35.583Z,101059.00
2023-09-18T09:46:48.199Z,101059.00
2023-09-18T09:51:52.899Z,101055.00
2023-09-18T09:56:55.751Z,101042.00
2023-09-18T10:02:20.470Z,101043.00
2023-09-18T10:07:25.163Z,101038.00
2023-09-18T10:12:31.035Z,101033.00
2023-09-18T10:17:37.878Z,101025.00
2023-09-18T10:22:47.082Z,101013.00
2023-09-18T10:27:52.775Z,101007.00
2023-09-18T10:32:57.752Z,101003.00
2023-09-18T10:38:03.909Z,100995.00
2023-09-18T10:43:12.158Z,100992.00
2023-09-18T10:48:18.143Z,100991.00
2023-09-18T10:53:26.324Z,100984.00
2023-09-18T10:58:29.412Z,100975.00
2023-09-18T11:03:35.261Z,100967.00
2023-09-18T11:08:47.268Z,100970.00
2023-09-18T11:13:53.109Z,100951.00
2023-09-18T11:19:19.992Z,100942.00
2023-09-18T11:24:31.267Z,100938.00
2023-09-18T11:29:42.924Z,100937.00
2023-09-18T11:34:47.462Z,100932.00
2023-09-18T11:39:51.843Z,100936.00
2023-09-18T11:44:55.671Z,100930.00
2023-09-18T11:50:00.955Z,100926.00
2023-09-18T11:55:09.741Z,100919.00
2023-09-18T12:00:20.571Z,100916.00
2023-09-18T12:05:24.491Z,100901.00
2023-09-18T12:10:29.211Z,100901.00
2023-09-18T12:15:32.505Z,100891.00
2023-09-18T12:20:41.838Z,100889.00
2023-09-18T12:26:08.287Z,100884.00
2023-09-18T12:31:12.733Z,100870.00
2023-09-18T12:36:20.933Z,100876.00
2023-09-18T12:41:32.538Z,100866.00
2023-09-18T12:46:36.711Z,100861.00
2023-09-18T12:51:39.355Z,100858.00
2023-09-18T12:56:43.910Z,100862.00
2023-09-18T13:01:49.258Z,100852.00
2023-09-18T13:07:12.297Z,100835.00
2023-09-18T13:12:16.472Z,100830.00
2023-09-18T13:17:19.039Z,100809.00
2023-09-18T13:22:25.801Z,100812.00
2023-09-18T13:27:31.123Z,100803.00
2023-09-18T13:32:39.103Z,100802.00
2023-09-18T13:37:51.193Z,100795.00
2023-09-18T13:42:55.210Z,100790.00
2023-09-18T13:47:57.913Z,100775.00
2023-09-18T13:53:03.370Z,100768.00
2023-09-18T13:58:08.127Z,100762.00
2023-09-18T14:03:10.795Z,100765.00
2023-09-18T14:08:13.266Z,100761.00
2023-09-18T14:13:17.102Z,100751.00
2023-09-18T14:18:19.746Z,100743.00
2023-09-18T14:23:22.340Z,100739.00
2023-09-18T14:28:26.432Z,100725.00
2023-09-18T14:33:29.143Z,100730.00
2023-09-18T14:38:31.721Z,100718.00
2023-09-18T14:43:35.811Z,100723.00
2023-09-18T14:48:38.539Z,100704.00
2023-09-18T14:53:41.511Z,100713.00
2023-09-18T14:58:45.629Z,100706.00
2023-09-18T15:03:48.245Z,100709.00
2023-09-18T15:08:50.820Z,100707.00
2023-09-18T15:13:54.762Z,100699.00
2023-09-18T15:18:58.820Z,100704.00
2023-09-18T15:24:01.404Z,100705.00
2023-09-18T15:29:05.439Z,100698.00
2023-09-18T15:34:08.092Z,100686.00
2023-09-18T15:39:10.722Z,100676.00
2023-09-18T15:44:15.086Z,100681.00
2023-09-18T15:49:17.539Z,100677.00
2023-09-18T15:54:19.993Z,100670.00
2023-09-18T15:59:26.960Z,100663.00
2023-09-18T16:04:29.659Z,100655.00
2023-09-18T16:09:34.893Z,100653.00
2023-09-18T16:14:38.689Z,100647.00
2023-09-18T16:19:41.092Z,100642.00
2023-09-18T16:24:43.957Z,100641.00
2023-09-18T16:29:47.759Z,100639.00
2023-09-18T16:34:50.690Z,100635.00
2023-09-18T16:39:53.222Z,100624.00
2023-09-18T16:44:57.158Z,100631.00
2023-09-18T16:49:59.819Z,100633.00
2023-09-18T16:55:02.327Z,100628.00
2023-09-18T17:00:08.320Z,100628.00
2023-09-18T17:05:10.875Z,100622.00
2023-09-18T17:10:13.374Z,100626.00
2023-09-18T17:15:25.922Z,100618.00
2023-09-18T17:20:30.085Z,100625.00
2023-09-18T17:25:32.669Z,100620.00
2023-09-18T17:30:36.678Z,100631.00
2023-09-18T17:35:40.437Z,100626.00
2023-09-18T17:40:43.071Z,100629.00
2023-09-18T17:45:50.111Z,100634.00
2023-09-18T17:50:52.673Z,100630.00
2023-09-18T17:55:56.672Z,100629.00
2023-09-18T18:01:00.529Z,100614.00
2023-09-18T18:06:08.823Z,100615.00
2023-09-18T18:11:11.550Z,100626.00
2023-09-18T18:16:15.473Z,100622.00
2023-09-18T18:21:18.510Z,100627.00
2023-09-18T18:26:23.142Z,100626.00
2023-09-18T18:31:27.382Z,100625.00
2023-09-18T18:36:30.593Z,100623.00
2023-09-18T18:41:33.005Z,100616.00
2023-09-18T18:46:37.017Z,100620.00
2023-09-18T18:51:39.551Z,100614.00
2023-09-18T18:56:42.965Z,100616.00
2023-09-18T19:01:55.200Z,100604.00
2023-09-18T19:06:58.370Z,100605.00
2023-09-18T19:12:04.833Z,100611.00
2023-09-18T19:17:09.013Z,100605.00
2023-09-18T19:22:14.477Z,100588.00
2023-09-18T19:27:17.058Z,100590.00
2023-09-18T19:32:24.102Z,100576.00
2023-09-18T19:37:26.638Z,100568.00
2023-09-18T19:42:29.159Z,100561.00
2023-09-18T19:47:33.456Z,100552.00
2023-09-18T19:52:36.085Z,100563.00
2023-09-18T19:57:38.799Z,100559.00
2023-09-18T20:02:43.064Z,100557.00
2023-09-18T20:07:46.400Z,100545.00
2023-09-18T20:12:52.504Z,100543.00
2023-09-18T20:18:15.695Z,100534.00
2023-09-18T20:23:18.502Z,100530.00
2023-09-18T20:28:20.998Z,100539.00
2023-09-18T20:33:24.959Z,100538.00
2023-09-18T20:38:30.555Z,100527.00
2023-09-18T20:43:33.128Z,100527.00
2023-09-18T20:48:37.444Z,100524.00
2023-09-18T20:53:40.284Z,100516.00
2023-09-18T20:58:42.865Z,100515.00
2023-09-18T21:03:46.933Z,100512.00
2023-09-18T21:08:49.822Z,100515.00
2023-09-18T21:13:55.379Z,100511.00
2023-09-18T21:18:59.412Z,100515.00
2023-09-18T21:24:02.093Z,100510.00
2023-09-18T21:29:04.878Z,100502.00
2023-09-18T21:34:08.988Z,100496.00
2023-09-18T21:39:11.654Z,100488.00
2023-09-18T21:44:14.385Z,100485.00
2023-09-18T21:49:18.650Z,100479.00
2023-09-18T21:54:21.186Z,100476.00
2023-09-18T21:59:23.829Z,100472.00
2023-09-18T22:04:27.798Z,100464.00
2023-09-18T22:09:30.525Z,100458.00
2023-09-18T22:14:33.152Z,100449.00
2023-09-18T22:19:37.486Z,100447.00
2023-09-18T22:24:40.058Z,100443.00
2023-09-18T22:29:43.116Z,100441.00
2023-09-18T22:34:46.972Z,100436.00
2023-09-18T22:40:02.658Z,100443.00
2023-09-18T22:46:01.213Z,100419.00
2023-09-18T22:51:59.919Z,100424.00
2023-09-18T22:57:04.152Z,100410.00
2023-09-18T23:08:57.357Z,100396.00
2023-09-18T23:14:02.707Z,100383.00
2023-09-18T23:19:05.421Z,100387.00
2023-09-18T23:24:08.933Z,100376.00
2023-09-18T23:29:12.870Z,100376.00
2023-09-18T23:34:15.368Z,100386.00
2023-09-18T23:39:18.086Z,100390.00
2023-09-18T23:44:22.154Z,100389.00
2023-09-18T23:49:24.764Z,100385.00
2023-09-18T23:54:30.160Z,100374.00
2023-09-18T23:59:33.930Z,100376.00
